createdAt,value
2019-05-14T00:00:32.289Z,44.90
2019-05-14T00:03:37.520Z,45.40
2019-05-14T00:06:42.472Z,45.20
2019-05-14T00:09:47.349Z,45.50
2019-05-14T00:12:52.297Z,45.70
2019-05-14T00:15:57.314Z,45.10
2019-05-14T00:19:02.399Z,44.70
2019-05-14T00:22:07.488Z,44.40
2019-05-14T00:25:12.689Z,45.60
2019-05-14T00:28:17.762Z,43.10
2019-05-14T00:31:22.793Z,44.70
2019-05-14T00:34:27.916Z,44.70
2019-05-14T00:37:32.982Z,44.10
2019-05-14T00:40:38.066Z,43.30
2019-05-14T00:43:43.362Z,43.70
2019-05-14T00:46:48.394Z,43.90
2019-05-14T00:49:53.763Z,43.70
2019-05-14T00:52:58.873Z,41.80
2019-05-14T00:56:03.847Z,42.40
2019-05-14T00:59:11.178Z,42.80
2019-05-14T01:02:15.374Z,42.30
2019-05-14T01:05:21.545Z,42.50
2019-05-14T01:08:26.920Z,42.30
2019-05-14T01:11:31.951Z,41.60
2019-05-14T01:14:36.905Z,40.40
2019-05-14T01:17:42.279Z,41.00
2019-05-14T01:21:06.125Z,41.10
2019-05-14T01:24:12.584Z,40.70
2019-05-14T01:27:17.738Z,39.40
2019-05-14T01:30:22.803Z,40.80
2019-05-14T01:33:27.477Z,40.70
2019-05-14T01:36:32.249Z,40.70
2019-05-14T01:39:37.213Z,40.90
2019-05-14T01:42:42.111Z,40.40
2019-05-14T01:45:47.204Z,40.00
2019-05-14T01:48:52.400Z,40.40
2019-05-14T01:51:57.306Z,40.80
2019-05-14T01:55:02.305Z,41.40
2019-05-14T01:58:07.435Z,40.70
2019-05-14T02:01:12.357Z,40.50
2019-05-14T02:04:17.244Z,40.00
2019-05-14T02:07:22.252Z,40.90
2019-05-14T02:10:27.389Z,41.50
2019-05-14T02:13:32.548Z,41.10
2019-05-14T02:16:37.400Z,40.70
2019-05-14T02:19:42.749Z,39.50
2019-05-14T02:22:47.858Z,39.10
2019-05-14T02:25:53.307Z,39.60
2019-05-14T02:28:58.202Z,39.80
2019-05-14T02:32:03.278Z,38.80
2019-05-14T02:35:09.868Z,39.10
2019-05-14T02:38:14.918Z,39.50
2019-05-14T02:41:20.029Z,38.40
2019-05-14T02:44:25.070Z,39.50
2019-05-14T02:47:30.293Z,39.60
2019-05-14T02:50:35.265Z,39.30
2019-05-14T02:53:40.370Z,39.20
2019-05-14T02:56:45.251Z,39.40
2019-05-14T02:59:50.574Z,39.10
2019-05-14T03:02:55.621Z,38.60
2019-05-14T03:06:01.154Z,38.30
2019-05-14T03:09:09.413Z,38.30
2019-05-14T03:12:13.472Z,38.40
2019-05-14T03:15:20.134Z,38.20
2019-05-14T03:18:25.096Z,38.30
2019-05-14T03:21:30.629Z,38.30
2019-05-14T03:24:35.688Z,39.00
2019-05-14T03:27:40.862Z,39.10
2019-05-14T03:30:51.486Z,38.70
2019-05-14T03:33:53.625Z,37.80
2019-05-14T03:37:03.355Z,38.30
2019-05-14T03:40:09.201Z,38.30
2019-05-14T03:43:12.933Z,38.30
2019-05-14T03:46:20.540Z,39.20
2019-05-14T03:49:43.674Z,39.20
2019-05-14T03:52:49.791Z,37.60
2019-05-14T03:55:55.094Z,38.30
2019-05-14T03:59:00.412Z,38.30
2019-05-14T04:02:05.867Z,38.30
2019-05-14T04:05:10.904Z,38.20
2019-05-14T04:08:16.458Z,37.90
2019-05-14T04:11:22.403Z,38.10
2019-05-14T04:14:30.401Z,37.70
2019-05-14T04:17:41.756Z,37.80
2019-05-14T04:20:49.808Z,38.10
2019-05-14T04:23:55.553Z,37.70
2019-05-14T04:27:07.159Z,38.10
2019-05-14T04:30:09.551Z,37.90
2019-05-14T04:33:18.882Z,38.10
2019-05-14T04:36:23.092Z,38.00
2019-05-14T04:39:30.803Z,38.10
2019-05-14T04:42:34.625Z,38.10
2019-05-14T04:45:39.785Z,38.20
2019-05-14T04:48:44.697Z,38.20
2019-05-14T04:51:50.527Z,38.30
2019-05-14T04:54:55.604Z,38.30
2019-05-14T04:58:00.555Z,38.90
2019-05-14T05:01:05.569Z,38.20
2019-05-14T05:04:10.831Z,38.30
2019-05-14T05:07:18.942Z,38.00
2019-05-14T05:10:22.439Z,38.30
2019-05-14T05:13:29.222Z,38.30
2019-05-14T05:16:39.122Z,38.30
2019-05-14T05:19:45.813Z,38.40
2019-05-14T05:22:49.624Z,38.50
2019-05-14T05:25:54.583Z,38.30
2019-05-14T05:29:06.376Z,38.00
2019-05-14T05:32:08.465Z,38.10
2019-05-14T05:35:13.295Z,37.10
2019-05-14T05:38:18.485Z,38.10
2019-05-14T05:41:23.597Z,38.20
2019-05-14T05:44:28.925Z,38.40
2019-05-14T05:47:33.869Z,37.80
2019-05-14T05:50:39.041Z,37.40
2019-05-14T05:53:44.102Z,36.30
2019-05-14T05:56:49.258Z,36.90
2019-05-14T05:59:54.417Z,38.00
2019-05-14T06:02:59.569Z,37.10
2019-05-14T06:06:04.509Z,37.30
2019-05-14T06:09:09.375Z,38.30
2019-05-14T06:12:14.265Z,37.40
2019-05-14T06:15:19.335Z,36.20
2019-05-14T06:18:24.252Z,36.90
2019-05-14T06:21:29.390Z,36.90
2019-05-14T06:24:34.721Z,35.90
2019-05-14T06:27:39.719Z,36.50
2019-05-14T06:30:44.677Z,37.20
2019-05-14T06:33:49.684Z,36.80
2019-05-14T06:36:54.693Z,36.40
2019-05-14T06:39:59.955Z,36.80
2019-05-14T06:43:04.972Z,36.80
2019-05-14T06:46:10.002Z,36.70
2019-05-14T06:49:14.951Z,36.50
2019-05-14T06:52:20.126Z,36.20
2019-05-14T06:55:25.162Z,36.80
2019-05-14T06:58:30.384Z,36.50
2019-05-14T07:01:35.287Z,36.60
2019-05-14T07:04:40.467Z,36.50
2019-05-14T07:07:45.377Z,37.10
2019-05-14T07:10:50.301Z,36.40
2019-05-14T07:13:55.099Z,36.60
2019-05-14T07:17:00.094Z,36.70
2019-05-14T07:20:08.675Z,36.90
2019-05-14T07:23:13.324Z,35.90
2019-05-14T07:26:19.362Z,35.80
2019-05-14T07:29:24.601Z,35.50
2019-05-14T07:32:29.546Z,35.50
2019-05-14T07:35:34.750Z,34.60
2019-05-14T07:38:39.672Z,35.70
2019-05-14T07:41:44.946Z,34.80
2019-05-14T07:44:50.025Z,36.00
2019-05-14T07:47:55.010Z,35.60
2019-05-14T07:51:00.299Z,35.50
2019-05-14T07:54:05.094Z,35.50
2019-05-14T07:57:10.029Z,34.90
2019-05-14T08:00:15.277Z,34.70
2019-05-14T08:03:20.397Z,35.70
2019-05-14T08:06:28.013Z,34.30
2019-05-14T08:09:32.514Z,34.70
2019-05-14T08:12:39.184Z,34.70
2019-05-14T08:15:44.358Z,35.00
2019-05-14T08:18:49.423Z,35.00
2019-05-14T08:21:55.180Z,34.80
2019-05-14T08:25:01.895Z,34.80
2019-05-14T08:28:08.156Z,35.40
2019-05-14T08:31:13.577Z,34.50
2019-05-14T08:34:19.243Z,34.20
2019-05-14T08:37:24.675Z,34.70
2019-05-14T08:40:29.691Z,33.50
2019-05-14T08:43:35.153Z,34.80
2019-05-14T08:46:40.534Z,33.10
2019-05-14T08:49:49.990Z,33.90
2019-05-14T08:52:54.127Z,34.20
2019-05-14T08:55:59.279Z,34.00
2019-05-14T08:59:04.768Z,33.80
2019-05-14T09:02:10.707Z,33.20
2019-05-14T09:05:18.317Z,32.00
2019-05-14T09:08:23.000Z,32.50
2019-05-14T09:11:34.320Z,32.20
2019-05-14T09:14:34.517Z,32.80
2019-05-14T09:17:39.645Z,32.50
2019-05-14T09:20:44.730Z,32.10
2019-05-14T09:23:49.726Z,32.60
2019-05-14T09:26:54.875Z,31.60
2019-05-14T09:29:59.935Z,31.80
2019-05-14T09:33:05.191Z,32.30
2019-05-14T09:36:18.965Z,32.00
2019-05-14T09:39:18.814Z,32.00
2019-05-14T09:42:23.477Z,31.10
2019-05-14T09:45:28.489Z,31.00
2019-05-14T09:48:33.388Z,31.20
2019-05-14T09:51:38.669Z,31.40
2019-05-14T09:54:44.220Z,31.40
2019-05-14T09:57:49.216Z,31.70
2019-05-14T10:00:54.371Z,31.10
2019-05-14T10:03:59.544Z,31.80
2019-05-14T10:07:04.813Z,31.90
2019-05-14T10:10:10.229Z,31.00
2019-05-14T10:13:15.905Z,31.80
2019-05-14T10:16:20.932Z,32.80
2019-05-14T10:19:29.288Z,33.20
2019-05-14T10:22:32.765Z,34.20
2019-05-14T10:25:40.172Z,35.40
2019-05-14T10:28:44.463Z,35.30
2019-05-14T10:31:49.353Z,35.20
2019-05-14T10:34:54.294Z,36.00
2019-05-14T10:37:59.806Z,37.70
2019-05-14T10:41:05.504Z,37.80
2019-05-14T10:44:10.420Z,38.80
2019-05-14T10:47:18.798Z,39.90
2019-05-14T10:50:23.969Z,40.80
2019-05-14T10:53:29.279Z,41.10
2019-05-14T10:56:34.576Z,41.60
2019-05-14T10:59:39.403Z,41.10
2019-05-14T11:02:44.361Z,40.50
2019-05-14T11:05:49.331Z,38.90
2019-05-14T11:08:54.541Z,39.40
2019-05-14T11:12:02.306Z,39.80
2019-05-14T11:15:09.089Z,39.70
2019-05-14T11:18:14.200Z,38.60
2019-05-14T11:21:26.010Z,38.70
2019-05-14T11:24:30.473Z,38.50
2019-05-14T11:27:36.012Z,37.90
2019-05-14T11:30:41.250Z,37.50
2019-05-14T11:33:46.210Z,36.80
2019-05-14T11:36:51.119Z,37.30
2019-05-14T11:39:58.100Z,36.80
2019-05-14T11:43:02.825Z,38.30
2019-05-14T11:46:08.642Z,36.50
2019-05-14T11:49:13.903Z,37.30
2019-05-14T11:52:19.002Z,37.40
2019-05-14T11:55:24.235Z,37.80
2019-05-14T11:58:29.582Z,38.10
2019-05-14T12:01:34.689Z,38.00
2019-05-14T12:04:39.853Z,38.30
2019-05-14T12:07:44.881Z,38.60
2019-05-14T12:10:50.169Z,39.10
2019-05-14T12:13:55.102Z,39.90
2019-05-14T12:17:00.309Z,40.20
2019-05-14T12:20:05.481Z,40.80
2019-05-14T12:23:10.626Z,40.60
2019-05-14T12:26:15.868Z,41.20
2019-05-14T12:29:20.894Z,41.50
2019-05-14T12:32:26.138Z,40.50
2019-05-14T12:35:31.187Z,40.40
2019-05-14T12:38:38.222Z,40.50
2019-05-14T12:41:43.378Z,40.50
2019-05-14T12:44:48.743Z,41.10
2019-05-14T12:47:53.878Z,40.70
2019-05-14T12:50:59.583Z,40.30
2019-05-14T12:54:04.618Z,39.40
2019-05-14T12:57:09.623Z,39.10
2019-05-14T13:00:14.948Z,37.30
2019-05-14T13:03:20.102Z,35.90
2019-05-14T13:06:25.082Z,35.80
2019-05-14T13:09:30.193Z,36.40
2019-05-14T13:12:35.369Z,35.30
2019-05-14T13:15:40.521Z,35.70
2019-05-14T13:18:45.681Z,35.20
2019-05-14T13:22:08.817Z,34.80
2019-05-14T13:24:58.205Z,34.80
2019-05-14T13:28:03.190Z,35.80
2019-05-14T13:31:08.870Z,35.00
2019-05-14T13:34:14.097Z,34.20
2019-05-14T13:37:19.223Z,35.10
2019-05-14T13:40:25.338Z,34.10
2019-05-14T13:43:30.708Z,35.00
2019-05-14T13:46:35.719Z,35.60
2019-05-14T13:49:43.266Z,35.40
2019-05-14T13:52:59.731Z,33.70
2019-05-14T13:55:57.724Z,34.20
2019-05-14T13:59:01.664Z,33.60
2019-05-14T14:02:09.260Z,34.20
2019-05-14T14:05:13.798Z,34.70
2019-05-14T14:08:19.272Z,34.00
2019-05-14T14:11:24.389Z,33.70
2019-05-14T14:14:29.386Z,33.50
2019-05-14T14:17:34.251Z,33.80
2019-05-14T14:20:39.508Z,34.10
2019-05-14T14:23:44.855Z,34.10
2019-05-14T14:26:49.857Z,33.50
2019-05-14T14:29:54.837Z,32.90
2019-05-14T14:32:59.777Z,33.00
2019-05-14T14:36:04.786Z,34.20
2019-05-14T14:39:10.011Z,33.40
2019-05-14T14:42:14.974Z,33.10
2019-05-14T14:45:21.696Z,33.70
2019-05-14T14:48:30.227Z,33.70
2019-05-14T14:51:40.490Z,33.70
2019-05-14T14:54:40.610Z,33.40
2019-05-14T14:57:46.490Z,32.40
2019-05-14T15:00:52.280Z,33.70
2019-05-14T15:04:00.021Z,33.50
2019-05-14T15:07:04.310Z,33.40
2019-05-14T15:10:10.377Z,33.10
2019-05-14T15:13:15.269Z,33.20
2019-05-14T15:16:20.480Z,33.10
2019-05-14T15:19:25.613Z,33.00
2019-05-14T15:22:31.216Z,34.00
2019-05-14T15:25:36.548Z,34.70
2019-05-14T15:28:41.845Z,35.40
2019-05-14T15:31:48.497Z,35.20
2019-05-14T15:34:53.706Z,36.20
2019-05-14T15:37:59.089Z,35.80
2019-05-14T15:41:04.208Z,36.20
2019-05-14T15:44:09.247Z,37.30
2019-05-14T15:47:14.084Z,37.30
2019-05-14T15:50:20.021Z,37.70
2019-05-14T15:53:25.169Z,37.80
2019-05-14T15:56:30.061Z,38.10
2019-05-14T15:59:35.133Z,38.40
2019-05-14T16:02:40.164Z,39.00
2019-05-14T16:05:45.390Z,40.10
2019-05-14T16:08:51.359Z,40.10
2019-05-14T16:11:56.421Z,40.70
2019-05-14T16:15:01.459Z,41.50
2019-05-14T16:18:14.911Z,41.10
2019-05-14T16:21:13.345Z,41.00
2019-05-14T16:24:22.364Z,41.50
2019-05-14T16:27:25.271Z,41.60
2019-05-14T16:30:30.353Z,41.80
2019-05-14T16:33:35.334Z,41.80
2019-05-14T16:36:41.311Z,42.00
2019-05-14T16:39:48.654Z,42.30
2019-05-14T16:42:53.249Z,41.80
2019-05-14T16:45:59.729Z,42.20
2019-05-14T16:49:05.101Z,41.50
2019-05-14T16:52:11.266Z,40.90
2019-05-14T16:55:24.554Z,41.00
2019-05-14T16:58:22.997Z,41.40
2019-05-14T17:01:33.363Z,40.50
2019-05-14T17:04:34.969Z,40.30
2019-05-14T17:07:40.010Z,40.50
2019-05-14T17:10:44.836Z,40.40
2019-05-14T17:13:49.691Z,40.70
2019-05-14T17:16:54.665Z,40.70
2019-05-14T17:19:59.611Z,41.40
2019-05-14T17:23:04.790Z,41.10
2019-05-14T17:26:09.986Z,41.20
2019-05-14T17:29:15.088Z,41.30
2019-05-14T17:32:20.410Z,41.70
2019-05-14T17:35:25.597Z,41.40
2019-05-14T17:38:30.713Z,41.80
2019-05-14T17:41:36.107Z,42.00
2019-05-14T17:44:41.227Z,42.40
2019-05-14T17:47:49.068Z,42.50
2019-05-14T17:50:53.714Z,42.50
2019-05-14T17:53:58.847Z,43.20
2019-05-14T17:57:04.075Z,43.30
2019-05-14T18:00:10.125Z,43.80
2019-05-14T18:03:15.397Z,43.80
2019-05-14T18:06:20.442Z,44.60
2019-05-14T18:09:26.055Z,44.60
2019-05-14T18:12:30.977Z,44.50
2019-05-14T18:15:36.132Z,45.10
2019-05-14T18:18:41.046Z,45.40
2019-05-14T18:21:48.456Z,46.00
2019-05-14T18:24:54.305Z,47.40
2019-05-14T18:27:59.220Z,48.40
2019-05-14T18:31:04.584Z,47.50
2019-05-14T18:34:10.269Z,46.40
2019-05-14T18:37:15.217Z,46.60
2019-05-14T18:40:20.420Z,47.80
2019-05-14T18:43:25.321Z,47.90
2019-05-14T18:46:34.008Z,47.60
2019-05-14T18:49:41.179Z,47.60
2019-05-14T18:52:48.472Z,47.90
2019-05-14T18:55:53.803Z,50.40
2019-05-14T18:58:58.887Z,48.40
2019-05-14T19:02:38.973Z,47.90
2019-05-14T19:05:43.130Z,48.10
2019-05-14T19:08:48.464Z,48.40
2019-05-14T19:11:53.946Z,48.30
2019-05-14T19:15:08.749Z,48.40
2019-05-14T19:18:13.328Z,48.30
2019-05-14T19:21:21.643Z,48.40
2019-05-14T19:24:28.655Z,48.30
2019-05-14T19:27:33.725Z,48.30
2019-05-14T19:30:38.777Z,48.30
2019-05-14T19:33:43.845Z,48.40
2019-05-14T19:36:49.407Z,48.50
2019-05-14T19:40:01.277Z,48.60
2019-05-14T19:43:06.453Z,48.90
2019-05-14T19:50:18.894Z,49.40
2019-05-14T19:53:23.980Z,49.50
2019-05-14T19:56:49.559Z,49.50
2019-05-14T19:59:42.431Z,50.40
2019-05-14T20:02:48.753Z,49.40
2019-05-14T20:05:54.928Z,49.50
2019-05-14T20:09:00.160Z,49.20
2019-05-14T20:12:05.444Z,49.30
2019-05-14T20:15:10.944Z,49.40
2019-05-14T20:18:15.901Z,48.90
2019-05-14T20:21:20.938Z,48.90
2019-05-14T20:24:28.176Z,48.90
2019-05-14T20:27:33.787Z,49.20
2019-05-14T20:30:38.844Z,49.90
2019-05-14T20:33:43.907Z,50.70
2019-05-14T20:36:49.597Z,51.00
2019-05-14T20:39:54.643Z,51.30
2019-05-14T20:43:00.130Z,51.40
2019-05-14T20:46:05.871Z,51.40
2019-05-14T20:49:11.177Z,51.60
2019-05-14T20:52:16.229Z,51.90
2019-05-14T20:55:21.973Z,52.20
2019-05-14T20:58:27.920Z,52.40
2019-05-14T21:01:33.251Z,52.50
2019-05-14T21:04:38.502Z,52.70
2019-05-14T21:07:43.501Z,52.20
2019-05-14T21:10:49.378Z,53.10
2019-05-14T21:13:54.890Z,53.20
2019-05-14T21:17:00.014Z,53.50
2019-05-14T21:20:05.531Z,53.70
2019-05-14T21:23:12.319Z,53.80
2019-05-14T21:26:19.466Z,53.90
2019-05-14T21:29:24.165Z,53.90
2019-05-14T21:32:29.127Z,54.20
2019-05-14T21:35:34.039Z,54.20
2019-05-14T21:38:41.079Z,54.50
2019-05-14T21:41:48.888Z,54.40
2019-05-14T21:44:53.465Z,54.40
2019-05-14T21:47:59.429Z,55.80
2019-05-14T21:51:05.445Z,55.10
2019-05-14T21:54:10.767Z,55.00
2019-05-14T21:57:15.921Z,55.90
2019-05-14T22:00:29.564Z,55.20
2019-05-14T22:03:34.614Z,55.40
2019-05-14T22:06:41.224Z,55.50
2019-05-14T22:10:06.016Z,55.90
2019-05-14T22:14:20.392Z,54.80
2019-05-14T22:17:25.622Z,55.30
2019-05-14T22:20:30.631Z,55.30
2019-05-14T22:23:35.585Z,55.10
2019-05-14T22:26:40.471Z,54.70
2019-05-14T22:29:45.530Z,55.00
2019-05-14T22:36:21.484Z,54.20
2019-05-14T22:39:29.140Z,54.30
2019-05-14T22:42:34.115Z,54.30
2019-05-14T22:59:20.812Z,56.80
2019-05-14T23:02:25.754Z,58.10
2019-05-14T23:05:30.732Z,56.50
2019-05-14T23:08:35.681Z,56.10
2019-05-14T23:11:40.556Z,55.50
2019-05-14T23:14:48.523Z,54.80
2019-05-14T23:17:52.702Z,54.70
2019-05-14T23:20:58.999Z,55.50
2019-05-14T23:24:04.479Z,55.40
2019-05-14T23:27:09.479Z,54.50
2019-05-14T23:30:14.717Z,54.60
2019-05-14T23:33:20.041Z,54.90
2019-05-14T23:36:25.116Z,55.70
2019-05-14T23:39:30.326Z,55.60
2019-05-14T23:42:35.309Z,56.30
2019-05-14T23:45:40.363Z,56.20
2019-05-14T23:48:45.386Z,55.70
2019-05-14T23:51:50.309Z,56.10
2019-05-14T23:54:55.350Z,56.10
2019-05-14T23:58:00.454Z,56.40
